sensor_id;sensor_type;location;lat;lon;timestamp;P1;durP1;ratioP1;P2;durP2;ratioP2
31095;SDS011;17749;51.962;8.560;2023-07-22T05:02:59;18.55;;;11.13;;
31095;SDS011;17749;51.962;8.560;2023-07-22T05:05:26;20.33;;;12.68;;
31095;SDS011;17749;51.962;8.560;2023-07-22T05:07:53;18.92;;;11.18;;
31095;SDS011;17749;51.962;8.560;2023-07-22T05:10:21;21.83;;;11.52;;
31095;SDS011;17749;51.962;8.560;2023-07-22T05:12:48;16.48;;;10.77;;
31095;SDS011;17749;51.962;8.560;2023-07-22T05:15:15;17.17;;;11.10;;
31095;SDS011;17749;51.962;8.560;2023-07-22T05:17:43;16.17;;;10.73;;
31095;SDS011;17749;51.962;8.560;2023-07-22T05:20:11;19.02;;;11.95;;
31095;SDS011;17749;51.962;8.560;2023-07-22T05:22:40;18.42;;;11.40;;
31095;SDS011;17749;51.962;8.560;2023-07-22T05:25:07;20.30;;;11.70;;
31095;SDS011;17749;51.962;8.560;2023-07-22T05:27:35;20.00;;;11.50;;
31095;SDS011;17749;51.962;8.560;2023-07-22T05:30:02;17.00;;;11.38;;
31095;SDS011;17749;51.962;8.560;2023-07-22T05:32:32;19.65;;;11.57;;
31095;SDS011;17749;51.962;8.560;2023-07-22T05:35:00;17.42;;;11.18;;
31095;SDS011;17749;51.962;8.560;2023-07-22T05:37:28;16.30;;;10.63;;
31095;SDS011;17749;51.962;8.560;2023-07-22T05:39:55;18.98;;;10.57;;
31095;SDS011;17749;51.962;8.560;2023-07-22T05:42:22;18.10;;;10.80;;
31095;SDS011;17749;51.962;8.560;2023-07-22T05:44:50;18.15;;;11.80;;
31095;SDS011;17749;51.962;8.560;2023-07-22T05:47:16;18.40;;;11.90;;
31095;SDS011;17749;51.962;8.560;2023-07-22T05:49:45;16.70;;;10.93;;
31095;SDS011;17749;51.962;8.560;2023-07-22T05:52:12;15.68;;;10.80;;
31095;SDS011;17749;51.962;8.560;2023-07-22T05:54:38;19.27;;;11.80;;
31095;SDS011;17749;51.962;8.560;2023-07-22T05:57:06;16.00;;;10.57;;
31095;SDS011;17749;51.962;8.560;2023-07-22T05:59:33;17.83;;;11.25;;
31095;SDS011;17749;51.962;8.560;2023-07-22T06:02:06;18.63;;;11.32;;
31095;SDS011;17749;51.962;8.560;2023-07-22T06:04:34;17.75;;;11.25;;
31095;SDS011;17749;51.962;8.560;2023-07-22T06:07:01;16.98;;;10.43;;
31095;SDS011;17749;51.962;8.560;2023-07-22T06:09:29;18.35;;;11.10;;
31095;SDS011;17749;51.962;8.560;2023-07-22T06:11:55;16.70;;;10.85;;
31095;SDS011;17749;51.962;8.560;2023-07-22T06:14:30;19.08;;;11.20;;
31095;SDS011;17749;51.962;8.560;2023-07-22T06:17:07;17.65;;;10.95;;
31095;SDS011;17749;51.962;8.560;2023-07-22T06:19:54;18.52;;;10.70;;
31095;SDS011;17749;51.962;8.560;2023-07-22T06:22:25;16.77;;;10.35;;
31095;SDS011;17749;51.962;8.560;2023-07-22T06:24:53;19.05;;;11.95;;
31095;SDS011;17749;51.962;8.560;2023-07-22T06:27:24;18.17;;;11.10;;
31095;SDS011;17749;51.962;8.560;2023-07-22T06:29:58;18.23;;;12.45;;
31095;SDS011;17749;51.962;8.560;2023-07-22T06:32:30;18.90;;;11.48;;
31095;SDS011;17749;51.962;8.560;2023-07-22T06:34:58;19.73;;;11.07;;
31095;SDS011;17749;51.962;8.560;2023-07-22T06:37:31;19.55;;;11.52;;
31095;SDS011;17749;51.962;8.560;2023-07-22T06:39:58;17.20;;;10.63;;
31095;SDS011;17749;51.962;8.560;2023-07-22T06:42:29;21.73;;;11.75;;
31095;SDS011;17749;51.962;8.560;2023-07-22T06:45:10;19.00;;;11.25;;
31095;SDS011;17749;51.962;8.560;2023-07-22T06:47:37;16.92;;;10.85;;
31095;SDS011;17749;51.962;8.560;2023-07-22T06:50:08;17.38;;;11.23;;
31095;SDS011;17749;51.962;8.560;2023-07-22T06:52:36;18.08;;;10.68;;
31095;SDS011;17749;51.962;8.560;2023-07-22T06:55:03;15.25;;;9.93;;
31095;SDS011;17749;51.962;8.560;2023-07-22T06:57:38;19.38;;;11.20;;
31095;SDS011;17749;51.962;8.560;2023-07-22T07:00:08;15.95;;;10.80;;
31095;SDS011;17749;51.962;8.560;2023-07-22T07:06:28;18.85;;;10.77;;
31095;SDS011;17749;51.962;8.560;2023-07-22T07:08:58;14.07;;;8.38;;
31095;SDS011;17749;51.962;8.560;2023-07-22T07:11:28;14.93;;;9.82;;
31095;SDS011;17749;51.962;8.560;2023-07-22T07:13:55;18.47;;;9.37;;
31095;SDS011;17749;51.962;8.560;2023-07-22T07:16:26;20.75;;;11.70;;
31095;SDS011;17749;51.962;8.560;2023-07-22T07:18:56;13.73;;;9.20;;
31095;SDS011;17749;51.962;8.560;2023-07-22T07:21:22;14.15;;;9.30;;
31095;SDS011;17749;51.962;8.560;2023-07-22T07:23:50;12.50;;;9.05;;
31095;SDS011;17749;51.962;8.560;2023-07-22T07:26:18;14.38;;;8.88;;
31095;SDS011;17749;51.962;8.560;2023-07-22T07:28:47;14.00;;;9.40;;
31095;SDS011;17749;51.962;8.560;2023-07-22T07:31:15;14.32;;;9.40;;
31095;SDS011;17749;51.962;8.560;2023-07-22T07:33:42;16.33;;;9.30;;
31095;SDS011;17749;51.962;8.560;2023-07-22T07:36:09;13.45;;;8.98;;
31095;SDS011;17749;51.962;8.560;2023-07-22T07:38:36;15.70;;;9.10;;
31095;SDS011;17749;51.962;8.560;2023-07-22T07:41:04;18.20;;;10.13;;
31095;SDS011;17749;51.962;8.560;2023-07-22T07:43:35;14.82;;;9.98;;
31095;SDS011;17749;51.962;8.560;2023-07-22T07:49:00;13.77;;;8.90;;
31095;SDS011;17749;51.962;8.560;2023-07-22T07:51:29;13.30;;;9.27;;
31095;SDS011;17749;51.962;8.560;2023-07-22T07:53:57;15.07;;;10.02;;
31095;SDS011;17749;51.962;8.560;2023-07-22T07:56:26;15.50;;;9.88;;
31095;SDS011;17749;51.962;8.560;2023-07-22T07:58:54;17.02;;;9.50;;
31095;SDS011;17749;51.962;8.560;2023-07-22T08:01:21;16.50;;;9.85;;
31095;SDS011;17749;51.962;8.560;2023-07-22T08:03:49;13.43;;;9.40;;
31095;SDS011;17749;51.962;8.560;2023-07-22T08:06:16;14.93;;;9.07;;
31095;SDS011;17749;51.962;8.560;2023-07-22T08:08:46;13.90;;;9.45;;
31095;SDS011;17749;51.962;8.560;2023-07-22T08:11:14;13.98;;;9.63;;
31095;SDS011;17749;51.962;8.560;2023-07-22T08:13:42;15.68;;;9.60;;
31095;SDS011;17749;51.962;8.560;2023-07-22T08:16:11;20.33;;;10.73;;
31095;SDS011;17749;51.962;8.560;2023-07-22T08:18:39;13.07;;;9.25;;
31095;SDS011;17749;51.962;8.560;2023-07-22T08:21:07;13.45;;;9.50;;
31095;SDS011;17749;51.962;8.560;2023-07-22T08:23:35;15.05;;;9.68;;
31095;SDS011;17749;51.962;8.560;2023-07-22T08:26:03;12.70;;;9.07;;
31095;SDS011;17749;51.962;8.560;2023-07-22T08:28:34;17.35;;;10.57;;
31095;SDS011;17749;51.962;8.560;2023-07-22T08:31:01;14.05;;;9.05;;
31095;SDS011;17749;51.962;8.560;2023-07-22T08:33:29;16.40;;;10.93;;
31095;SDS011;17749;51.962;8.560;2023-07-22T08:36:08;16.17;;;8.37;;
31095;SDS011;17749;51.962;8.560;2023-07-22T08:38:35;19.45;;;10.57;;
31095;SDS011;17749;51.962;8.560;2023-07-22T08:41:03;17.80;;;10.27;;
31095;SDS011;17749;51.962;8.560;2023-07-22T08:43:30;15.60;;;8.40;;
31095;SDS011;17749;51.962;8.560;2023-07-22T08:46:00;16.77;;;11.10;;
31095;SDS011;17749;51.962;8.560;2023-07-22T08:48:31;15.52;;;9.70;;
31095;SDS011;17749;51.962;8.560;2023-07-22T08:51:04;13.85;;;9.27;;
31095;SDS011;17749;51.962;8.560;2023-07-22T08:53:36;18.10;;;11.23;;
31095;SDS011;17749;51.962;8.560;2023-07-22T08:56:04;18.55;;;11.45;;
31095;SDS011;17749;51.962;8.560;2023-07-22T08:58:31;15.85;;;9.63;;
31095;SDS011;17749;51.962;8.560;2023-07-22T09:00:59;15.10;;;10.60;;
31095;SDS011;17749;51.962;8.560;2023-07-22T09:03:26;22.23;;;12.05;;
31095;SDS011;17749;51.962;8.560;2023-07-22T09:05:54;16.35;;;10.60;;
31095;SDS011;17749;51.962;8.560;2023-07-22T09:08:22;21.92;;;10.52;;
31095;SDS011;17749;51.962;8.560;2023-07-22T09:10:49;18.90;;;10.75;;
31095;SDS011;17749;51.962;8.560;2023-07-22T09:13:17;16.27;;;10.93;;
31095;SDS011;17749;51.962;8.560;2023-07-22T09:15:47;14.27;;;9.77;;
31095;SDS011;17749;51.962;8.560;2023-07-22T09:18:17;19.15;;;10.38;;
31095;SDS011;17749;51.962;8.560;2023-07-22T09:20:44;17.63;;;11.32;;
31095;SDS011;17749;51.962;8.560;2023-07-22T09:23:11;24.20;;;13.73;;
31095;SDS011;17749;51.962;8.560;2023-07-22T09:28:08;15.02;;;9.05;;
31095;SDS011;17749;51.962;8.560;2023-07-22T09:30:37;14.67;;;9.33;;
31095;SDS011;17749;51.962;8.560;2023-07-22T09:33:21;15.57;;;9.95;;
31095;SDS011;17749;51.962;8.560;2023-07-22T09:35:51;15.68;;;10.18;;
31095;SDS011;17749;51.962;8.560;2023-07-22T09:38:22;17.05;;;8.68;;
31095;SDS011;17749;51.962;8.560;2023-07-22T09:40:51;14.52;;;8.57;;
31095;SDS011;17749;51.962;8.560;2023-07-22T09:43:18;14.40;;;8.23;;
31095;SDS011;17749;51.962;8.560;2023-07-22T09:45:48;10.90;;;7.57;;
31095;SDS011;17749;51.962;8.560;2023-07-22T09:48:16;13.88;;;8.13;;
31095;SDS011;17749;51.962;8.560;2023-07-22T09:50:43;10.45;;;8.02;;
31095;SDS011;17749;51.962;8.560;2023-07-22T09:53:14;11.65;;;7.53;;
31095;SDS011;17749;51.962;8.560;2023-07-22T09:55:43;10.55;;;8.05;;
31095;SDS011;17749;51.962;8.560;2023-07-22T09:58:10;10.95;;;7.07;;
31095;SDS011;17749;51.962;8.560;2023-07-22T10:00:42;12.52;;;7.22;;
31095;SDS011;17749;51.962;8.560;2023-07-22T10:03:15;10.13;;;6.72;;
31095;SDS011;17749;51.962;8.560;2023-07-22T10:05:45;9.98;;;6.72;;
31095;SDS011;17749;51.962;8.560;2023-07-22T10:08:15;9.30;;;6.78;;
31095;SDS011;17749;51.962;8.560;2023-07-22T10:10:45;11.27;;;7.00;;
31095;SDS011;17749;51.962;8.560;2023-07-22T10:13:12;11.13;;;7.70;;
31095;SDS011;17749;51.962;8.560;2023-07-22T10:15:40;11.50;;;7.68;;
31095;SDS011;17749;51.962;8.560;2023-07-22T10:18:07;11.05;;;6.88;;
31095;SDS011;17749;51.962;8.560;2023-07-22T10:20:37;10.30;;;6.90;;
31095;SDS011;17749;51.962;8.560;2023-07-22T10:23:05;8.85;;;6.22;;
31095;SDS011;17749;51.962;8.560;2023-07-22T10:25:35;10.90;;;7.70;;
31095;SDS011;17749;51.962;8.560;2023-07-22T10:28:03;10.57;;;5.95;;
31095;SDS011;17749;51.962;8.560;2023-07-22T10:30:32;8.75;;;5.82;;
31095;SDS011;17749;51.962;8.560;2023-07-22T10:33:00;9.80;;;6.85;;
31095;SDS011;17749;51.962;8.560;2023-07-22T10:38:14;11.38;;;6.82;;
31095;SDS011;17749;51.962;8.560;2023-07-22T10:46:09;8.40;;;6.40;;
31095;SDS011;17749;51.962;8.560;2023-07-22T10:48:39;10.85;;;6.97;;
31095;SDS011;17749;51.962;8.560;2023-07-22T10:51:12;8.75;;;6.65;;
31095;SDS011;17749;51.962;8.560;2023-07-22T10:53:45;9.45;;;6.50;;
31095;SDS011;17749;51.962;8.560;2023-07-22T10:56:15;8.52;;;6.43;;
31095;SDS011;17749;51.962;8.560;2023-07-22T11:07:29;8.18;;;5.90;;
31095;SDS011;17749;51.962;8.560;2023-07-22T11:09:57;9.23;;;6.03;;
31095;SDS011;17749;51.962;8.560;2023-07-22T11:12:24;9.25;;;6.78;;
31095;SDS011;17749;51.962;8.560;2023-07-22T11:14:52;11.30;;;5.57;;
31095;SDS011;17749;51.962;8.560;2023-07-22T11:17:28;9.50;;;6.43;;
31095;SDS011;17749;51.962;8.560;2023-07-22T11:19:57;11.57;;;6.80;;
31095;SDS011;17749;51.962;8.560;2023-07-22T11:22:25;14.13;;;6.35;;
31095;SDS011;17749;51.962;8.560;2023-07-22T11:24:55;8.18;;;5.85;;
31095;SDS011;17749;51.962;8.560;2023-07-22T11:27:24;9.30;;;6.30;;
31095;SDS011;17749;51.962;8.560;2023-07-22T11:29:52;8.43;;;4.85;;
31095;SDS011;17749;51.962;8.560;2023-07-22T11:32:19;9.63;;;6.35;;
31095;SDS011;17749;51.962;8.560;2023-07-22T11:34:51;8.32;;;6.00;;
31095;SDS011;17749;51.962;8.560;2023-07-22T11:37:22;7.72;;;6.10;;
31095;SDS011;17749;51.962;8.560;2023-07-22T11:39:49;7.93;;;5.82;;
31095;SDS011;17749;51.962;8.560;2023-07-22T11:42:16;10.10;;;6.18;;
31095;SDS011;17749;51.962;8.560;2023-07-22T11:44:46;7.28;;;5.55;;
31095;SDS011;17749;51.962;8.560;2023-07-22T11:47:14;8.20;;;6.32;;
31095;SDS011;17749;51.962;8.560;2023-07-22T11:49:41;7.57;;;5.63;;
31095;SDS011;17749;51.962;8.560;2023-07-22T11:52:17;8.15;;;5.38;;
31095;SDS011;17749;51.962;8.560;2023-07-22T11:54:45;6.55;;;5.32;;
31095;SDS011;17749;51.962;8.560;2023-07-22T11:57:16;8.88;;;5.57;;
31095;SDS011;17749;51.962;8.560;2023-07-22T12:02:13;7.95;;;5.50;;
31095;SDS011;17749;51.962;8.560;2023-07-22T12:04:41;6.00;;;4.90;;
31095;SDS011;17749;51.962;8.560;2023-07-22T12:10:08;8.18;;;4.78;;
31095;SDS011;17749;51.962;8.560;2023-07-22T12:12:37;8.27;;;5.53;;
31095;SDS011;17749;51.962;8.560;2023-07-22T12:17:53;7.10;;;5.28;;
31095;SDS011;17749;51.962;8.560;2023-07-22T12:20:28;9.15;;;5.45;;
31095;SDS011;17749;51.962;8.560;2023-07-22T12:22:57;5.68;;;4.80;;
31095;SDS011;17749;51.962;8.560;2023-07-22T12:25:25;7.65;;;4.25;;
31095;SDS011;17749;51.962;8.560;2023-07-22T12:27:53;8.30;;;5.15;;
31095;SDS011;17749;51.962;8.560;2023-07-22T12:30:20;6.78;;;4.53;;
31095;SDS011;17749;51.962;8.560;2023-07-22T12:32:48;8.38;;;5.25;;
31095;SDS011;17749;51.962;8.560;2023-07-22T12:35:15;8.15;;;5.22;;
31095;SDS011;17749;51.962;8.560;2023-07-22T12:37:43;6.63;;;4.40;;
31095;SDS011;17749;51.962;8.560;2023-07-22T12:40:10;6.60;;;4.60;;
31095;SDS011;17749;51.962;8.560;2023-07-22T12:42:40;6.93;;;4.72;;
31095;SDS011;17749;51.962;8.560;2023-07-22T12:45:07;7.07;;;4.35;;
31095;SDS011;17749;51.962;8.560;2023-07-22T12:47:35;5.50;;;4.05;;
31095;SDS011;17749;51.962;8.560;2023-07-22T12:50:03;6.53;;;4.33;;
31095;SDS011;17749;51.962;8.560;2023-07-22T12:52:31;7.20;;;4.95;;
31095;SDS011;17749;51.962;8.560;2023-07-22T12:54:58;4.95;;;4.03;;
31095;SDS011;17749;51.962;8.560;2023-07-22T12:57:25;6.63;;;4.65;;
31095;SDS011;17749;51.962;8.560;2023-07-22T12:59:52;6.63;;;4.80;;
31095;SDS011;17749;51.962;8.560;2023-07-22T13:02:19;6.40;;;4.65;;
31095;SDS011;17749;51.962;8.560;2023-07-22T13:04:46;7.15;;;4.97;;
31095;SDS011;17749;51.962;8.560;2023-07-22T13:07:13;6.97;;;4.93;;
31095;SDS011;17749;51.962;8.560;2023-07-22T13:09:47;7.10;;;4.68;;
31095;SDS011;17749;51.962;8.560;2023-07-22T13:12:16;5.10;;;3.97;;
31095;SDS011;17749;51.962;8.560;2023-07-22T13:14:45;7.50;;;4.40;;
31095;SDS011;17749;51.962;8.560;2023-07-22T13:17:12;9.02;;;4.32;;
31095;SDS011;17749;51.962;8.560;2023-07-22T13:19:39;5.88;;;4.10;;
31095;SDS011;17749;51.962;8.560;2023-07-22T13:22:06;5.28;;;4.03;;
31095;SDS011;17749;51.962;8.560;2023-07-22T13:24:33;5.47;;;4.13;;
31095;SDS011;17749;51.962;8.560;2023-07-22T13:27:01;5.05;;;3.67;;
31095;SDS011;17749;51.962;8.560;2023-07-22T13:29:28;5.05;;;3.72;;
31095;SDS011;17749;51.962;8.560;2023-07-22T13:31:57;5.07;;;3.45;;
31095;SDS011;17749;51.962;8.560;2023-07-22T13:34:28;5.38;;;3.83;;
31095;SDS011;17749;51.962;8.560;2023-07-22T13:36:55;4.85;;;3.70;;
31095;SDS011;17749;51.962;8.560;2023-07-22T13:39:22;5.93;;;4.47;;
31095;SDS011;17749;51.962;8.560;2023-07-22T13:41:49;5.40;;;3.60;;
31095;SDS011;17749;51.962;8.560;2023-07-22T13:44:16;6.18;;;3.97;;
31095;SDS011;17749;51.962;8.560;2023-07-22T13:46:44;7.63;;;4.30;;
31095;SDS011;17749;51.962;8.560;2023-07-22T13:49:11;4.88;;;3.55;;
31095;SDS011;17749;51.962;8.560;2023-07-22T13:51:38;4.28;;;3.60;;
31095;SDS011;17749;51.962;8.560;2023-07-22T13:54:05;9.52;;;4.63;;
31095;SDS011;17749;51.962;8.560;2023-07-22T13:56:32;5.63;;;4.35;;
31095;SDS011;17749;51.962;8.560;2023-07-22T13:58:59;7.32;;;4.13;;
31095;SDS011;17749;51.962;8.560;2023-07-22T14:01:27;5.47;;;4.13;;
31095;SDS011;17749;51.962;8.560;2023-07-22T14:03:55;6.50;;;4.38;;
31095;SDS011;17749;51.962;8.560;2023-07-22T14:06:22;5.43;;;3.55;;
31095;SDS011;17749;51.962;8.560;2023-07-22T14:08:49;4.85;;;4.00;;
31095;SDS011;17749;51.962;8.560;2023-07-22T14:11:16;6.47;;;3.65;;
31095;SDS011;17749;51.962;8.560;2023-07-22T14:13:44;6.70;;;3.72;;
31095;SDS011;17749;51.962;8.560;2023-07-22T14:16:11;7.15;;;4.65;;
31095;SDS011;17749;51.962;8.560;2023-07-22T14:18:48;4.90;;;3.55;;
31095;SDS011;17749;51.962;8.560;2023-07-22T14:21:15;5.05;;;3.92;;
31095;SDS011;17749;51.962;8.560;2023-07-22T14:23:42;5.85;;;3.65;;
31095;SDS011;17749;51.962;8.560;2023-07-22T14:26:10;4.97;;;3.42;;
31095;SDS011;17749;51.962;8.560;2023-07-22T14:28:37;15.85;;;4.88;;
31095;SDS011;17749;51.962;8.560;2023-07-22T14:31:04;5.20;;;3.92;;
31095;SDS011;17749;51.962;8.560;2023-07-22T14:33:32;6.43;;;4.07;;
31095;SDS011;17749;51.962;8.560;2023-07-22T14:35:59;4.53;;;3.95;;
31095;SDS011;17749;51.962;8.560;2023-07-22T14:38:26;6.70;;;3.90;;
31095;SDS011;17749;51.962;8.560;2023-07-22T14:40:53;5.55;;;3.30;;
31095;SDS011;17749;51.962;8.560;2023-07-22T14:43:20;5.28;;;3.40;;
31095;SDS011;17749;51.962;8.560;2023-07-22T14:45:48;6.32;;;3.38;;
31095;SDS011;17749;51.962;8.560;2023-07-22T14:48:15;4.10;;;3.00;;
31095;SDS011;17749;51.962;8.560;2023-07-22T14:50:42;4.07;;;3.22;;
31095;SDS011;17749;51.962;8.560;2023-07-22T14:53:10;7.13;;;3.47;;
31095;SDS011;17749;51.962;8.560;2023-07-22T14:55:37;4.43;;;2.83;;
31095;SDS011;17749;51.962;8.560;2023-07-22T14:58:04;4.72;;;2.83;;
31095;SDS011;17749;51.962;8.560;2023-07-22T15:00:31;4.22;;;3.00;;
31095;SDS011;17749;51.962;8.560;2023-07-22T15:02:58;5.22;;;2.83;;
31095;SDS011;17749;51.962;8.560;2023-07-22T15:05:26;4.15;;;2.97;;
31095;SDS011;17749;51.962;8.560;2023-07-22T15:07:53;3.15;;;2.72;;
31095;SDS011;17749;51.962;8.560;2023-07-22T15:10:20;4.18;;;3.22;;
31095;SDS011;17749;51.962;8.560;2023-07-22T15:12:47;2.97;;;2.45;;
31095;SDS011;17749;51.962;8.560;2023-07-22T15:15:17;3.90;;;2.95;;
31095;SDS011;17749;51.962;8.560;2023-07-22T15:17:44;3.60;;;2.70;;
31095;SDS011;17749;51.962;8.560;2023-07-22T15:20:12;4.18;;;2.83;;
31095;SDS011;17749;51.962;8.560;2023-07-22T15:22:39;4.03;;;2.80;;
31095;SDS011;17749;51.962;8.560;2023-07-22T15:25:06;4.70;;;3.40;;
31095;SDS011;17749;51.962;8.560;2023-07-22T15:27:33;4.15;;;2.88;;
31095;SDS011;17749;51.962;8.560;2023-07-22T15:30:00;4.47;;;2.55;;
31095;SDS011;17749;51.962;8.560;2023-07-22T15:32:27;3.22;;;2.47;;
31095;SDS011;17749;51.962;8.560;2023-07-22T15:34:54;4.93;;;3.25;;
31095;SDS011;17749;51.962;8.560;2023-07-22T15:37:21;5.47;;;2.75;;
31095;SDS011;17749;51.962;8.560;2023-07-22T15:39:48;7.57;;;2.70;;
31095;SDS011;17749;51.962;8.560;2023-07-22T15:42:16;4.20;;;2.60;;
31095;SDS011;17749;51.962;8.560;2023-07-22T15:44:43;3.90;;;2.47;;
31095;SDS011;17749;51.962;8.560;2023-07-22T15:47:10;5.00;;;3.05;;
31095;SDS011;17749;51.962;8.560;2023-07-22T15:49:37;5.60;;;2.65;;
31095;SDS011;17749;51.962;8.560;2023-07-22T15:52:04;2.92;;;2.28;;
31095;SDS011;17749;51.962;8.560;2023-07-22T15:54:31;3.72;;;2.95;;
31095;SDS011;17749;51.962;8.560;2023-07-22T15:56:58;5.13;;;2.70;;
31095;SDS011;17749;51.962;8.560;2023-07-22T15:59:25;4.40;;;2.67;;
31095;SDS011;17749;51.962;8.560;2023-07-22T16:01:53;3.47;;;2.50;;
31095;SDS011;17749;51.962;8.560;2023-07-22T16:04:20;5.43;;;2.90;;
31095;SDS011;17749;51.962;8.560;2023-07-22T16:06:47;3.60;;;2.30;;
31095;SDS011;17749;51.962;8.560;2023-07-22T16:09:14;3.35;;;2.65;;
31095;SDS011;17749;51.962;8.560;2023-07-22T16:11:42;4.57;;;2.47;;
31095;SDS011;17749;51.962;8.560;2023-07-22T16:14:09;8.30;;;2.55;;
31095;SDS011;17749;51.962;8.560;2023-07-22T16:16:36;4.07;;;2.15;;
31095;SDS011;17749;51.962;8.560;2023-07-22T16:19:04;4.13;;;2.55;;
31095;SDS011;17749;51.962;8.560;2023-07-22T16:21:32;5.47;;;2.92;;
31095;SDS011;17749;51.962;8.560;2023-07-22T16:23:59;3.30;;;2.30;;
31095;SDS011;17749;51.962;8.560;2023-07-22T16:26:26;4.50;;;2.67;;
31095;SDS011;17749;51.962;8.560;2023-07-22T16:28:54;3.30;;;2.35;;
31095;SDS011;17749;51.962;8.560;2023-07-22T16:31:21;2.95;;;2.22;;
31095;SDS011;17749;51.962;8.560;2023-07-22T16:33:48;5.00;;;2.60;;
31095;SDS011;17749;51.962;8.560;2023-07-22T16:36:15;5.05;;;3.10;;
31095;SDS011;17749;51.962;8.560;2023-07-22T16:38:42;5.68;;;2.78;;
31095;SDS011;17749;51.962;8.560;2023-07-22T16:41:09;4.80;;;2.53;;
31095;SDS011;17749;51.962;8.560;2023-07-22T16:43:36;4.82;;;2.28;;
31095;SDS011;17749;51.962;8.560;2023-07-22T16:46:03;4.40;;;2.47;;
31095;SDS011;17749;51.962;8.560;2023-07-22T16:48:30;5.35;;;2.13;;
31095;SDS011;17749;51.962;8.560;2023-07-22T16:50:57;3.00;;;2.13;;
31095;SDS011;17749;51.962;8.560;2023-07-22T16:53:24;4.25;;;2.53;;
31095;SDS011;17749;51.962;8.560;2023-07-22T16:55:51;3.22;;;2.47;;
31095;SDS011;17749;51.962;8.560;2023-07-22T16:58:18;4.78;;;2.38;;
31095;SDS011;17749;51.962;8.560;2023-07-22T17:00:45;3.47;;;2.17;;
31095;SDS011;17749;51.962;8.560;2023-07-22T17:03:14;5.97;;;2.92;;
31095;SDS011;17749;51.962;8.560;2023-07-22T17:05:43;3.60;;;2.35;;
31095;SDS011;17749;51.962;8.560;2023-07-22T17:08:10;4.15;;;2.47;;
31095;SDS011;17749;51.962;8.560;2023-07-22T17:10:37;2.72;;;2.22;;
31095;SDS011;17749;51.962;8.560;2023-07-22T17:13:04;4.10;;;2.90;;
31095;SDS011;17749;51.962;8.560;2023-07-22T17:15:31;3.78;;;2.53;;
31095;SDS011;17749;51.962;8.560;2023-07-22T17:17:58;4.00;;;2.55;;
31095;SDS011;17749;51.962;8.560;2023-07-22T17:20:25;4.65;;;2.40;;
31095;SDS011;17749;51.962;8.560;2023-07-22T17:22:53;4.40;;;2.63;;
31095;SDS011;17749;51.962;8.560;2023-07-22T17:25:20;5.03;;;2.40;;
31095;SDS011;17749;51.962;8.560;2023-07-22T17:27:48;4.25;;;2.63;;
31095;SDS011;17749;51.962;8.560;2023-07-22T17:30:15;3.45;;;2.67;;
31095;SDS011;17749;51.962;8.560;2023-07-22T17:32:42;3.92;;;2.55;;
31095;SDS011;17749;51.962;8.560;2023-07-22T17:35:12;4.50;;;2.70;;
31095;SDS011;17749;51.962;8.560;2023-07-22T17:37:40;3.60;;;2.60;;
31095;SDS011;17749;51.962;8.560;2023-07-22T17:40:07;3.92;;;2.55;;
31095;SDS011;17749;51.962;8.560;2023-07-22T17:42:34;3.22;;;2.10;;
31095;SDS011;17749;51.962;8.560;2023-07-22T17:45:01;3.55;;;2.42;;
31095;SDS011;17749;51.962;8.560;2023-07-22T17:47:28;4.03;;;2.55;;
31095;SDS011;17749;51.962;8.560;2023-07-22T17:49:55;3.42;;;2.30;;
31095;SDS011;17749;51.962;8.560;2023-07-22T17:52:22;5.13;;;3.00;;
31095;SDS011;17749;51.962;8.560;2023-07-22T17:54:51;3.20;;;2.50;;
31095;SDS011;17749;51.962;8.560;2023-07-22T17:57:17;4.63;;;2.40;;
31095;SDS011;17749;51.962;8.560;2023-07-22T17:59:45;3.33;;;2.70;;
31095;SDS011;17749;51.962;8.560;2023-07-22T18:02:16;3.45;;;2.78;;
31095;SDS011;17749;51.962;8.560;2023-07-22T18:04:42;3.83;;;2.45;;
31095;SDS011;17749;51.962;8.560;2023-07-22T18:07:09;3.42;;;2.00;;
31095;SDS011;17749;51.962;8.560;2023-07-22T18:09:36;4.32;;;2.40;;
31095;SDS011;17749;51.962;8.560;2023-07-22T18:12:03;4.07;;;2.70;;
31095;SDS011;17749;51.962;8.560;2023-07-22T18:14:30;3.78;;;2.30;;
31095;SDS011;17749;51.962;8.560;2023-07-22T18:17:00;3.55;;;2.78;;
31095;SDS011;17749;51.962;8.560;2023-07-22T18:19:27;3.25;;;2.45;;
31095;SDS011;17749;51.962;8.560;2023-07-22T18:21:54;4.50;;;3.10;;
31095;SDS011;17749;51.962;8.560;2023-07-22T18:24:21;3.60;;;2.50;;
31095;SDS011;17749;51.962;8.560;2023-07-22T18:26:48;5.68;;;3.17;;
31095;SDS011;17749;51.962;8.560;2023-07-22T18:29:15;4.82;;;2.83;;
31095;SDS011;17749;51.962;8.560;2023-07-22T18:31:42;5.05;;;3.08;;
31095;SDS011;17749;51.962;8.560;2023-07-22T18:34:09;5.63;;;3.42;;
31095;SDS011;17749;51.962;8.560;2023-07-22T18:36:36;4.43;;;3.42;;
31095;SDS011;17749;51.962;8.560;2023-07-22T18:39:03;4.03;;;3.10;;
31095;SDS011;17749;51.962;8.560;2023-07-22T18:41:30;5.35;;;2.90;;
31095;SDS011;17749;51.962;8.560;2023-07-22T18:43:57;5.30;;;3.33;;
31095;SDS011;17749;51.962;8.560;2023-07-22T18:46:24;5.20;;;3.60;;
31095;SDS011;17749;51.962;8.560;2023-07-22T18:48:51;4.55;;;3.15;;
31095;SDS011;17749;51.962;8.560;2023-07-22T18:51:18;4.65;;;3.25;;
31095;SDS011;17749;51.962;8.560;2023-07-22T18:53:45;6.60;;;3.30;;
31095;SDS011;17749;51.962;8.560;2023-07-22T18:56:12;5.47;;;2.83;;
31095;SDS011;17749;51.962;8.560;2023-07-22T18:58:39;3.97;;;2.83;;
31095;SDS011;17749;51.962;8.560;2023-07-22T19:01:06;4.22;;;2.70;;
31095;SDS011;17749;51.962;8.560;2023-07-22T19:03:33;6.25;;;3.25;;
31095;SDS011;17749;51.962;8.560;2023-07-22T19:06:00;3.78;;;2.53;;
31095;SDS011;17749;51.962;8.560;2023-07-22T19:08:27;3.88;;;2.80;;
31095;SDS011;17749;51.962;8.560;2023-07-22T19:10:54;4.53;;;3.33;;
31095;SDS011;17749;51.962;8.560;2023-07-22T19:13:21;3.60;;;3.00;;
31095;SDS011;17749;51.962;8.560;2023-07-22T19:15:50;4.38;;;2.97;;
31095;SDS011;17749;51.962;8.560;2023-07-22T19:18:18;3.42;;;2.25;;
31095;SDS011;17749;51.962;8.560;2023-07-22T19:20:56;7.88;;;3.17;;
31095;SDS011;17749;51.962;8.560;2023-07-22T19:23:25;4.38;;;3.22;;
31095;SDS011;17749;51.962;8.560;2023-07-22T19:25:53;4.50;;;3.35;;
31095;SDS011;17749;51.962;8.560;2023-07-22T19:28:20;5.93;;;3.35;;
31095;SDS011;17749;51.962;8.560;2023-07-22T19:30:54;4.93;;;3.28;;
31095;SDS011;17749;51.962;8.560;2023-07-22T19:33:25;6.93;;;3.25;;
31095;SDS011;17749;51.962;8.560;2023-07-22T19:35:59;7.60;;;4.15;;
31095;SDS011;17749;51.962;8.560;2023-07-22T19:38:28;5.10;;;3.42;;
31095;SDS011;17749;51.962;8.560;2023-07-22T19:41:05;4.93;;;3.40;;
31095;SDS011;17749;51.962;8.560;2023-07-22T19:43:34;6.47;;;3.05;;
31095;SDS011;17749;51.962;8.560;2023-07-22T19:46:05;5.97;;;3.17;;
31095;SDS011;17749;51.962;8.560;2023-07-22T19:48:34;6.15;;;3.50;;
31095;SDS011;17749;51.962;8.560;2023-07-22T19:51:02;7.35;;;4.38;;
31095;SDS011;17749;51.962;8.560;2023-07-22T19:53:31;7.07;;;3.83;;
31095;SDS011;17749;51.962;8.560;2023-07-22T19:55:59;5.65;;;4.10;;
31095;SDS011;17749;51.962;8.560;2023-07-22T19:58:28;8.88;;;3.75;;
31095;SDS011;17749;51.962;8.560;2023-07-22T20:00:55;7.30;;;4.00;;
31095;SDS011;17749;51.962;8.560;2023-07-22T20:03:26;4.55;;;3.42;;
31095;SDS011;17749;51.962;8.560;2023-07-22T20:05:54;7.63;;;4.07;;
31095;SDS011;17749;51.962;8.560;2023-07-22T20:08:21;6.65;;;3.97;;
31095;SDS011;17749;51.962;8.560;2023-07-22T20:10:49;4.70;;;4.05;;
31095;SDS011;17749;51.962;8.560;2023-07-22T20:13:17;5.80;;;3.88;;
31095;SDS011;17749;51.962;8.560;2023-07-22T20:15:44;4.85;;;3.70;;
31095;SDS011;17749;51.962;8.560;2023-07-22T20:18:11;7.00;;;4.30;;
31095;SDS011;17749;51.962;8.560;2023-07-22T20:20:38;5.75;;;4.05;;
31095;SDS011;17749;51.962;8.560;2023-07-22T20:23:05;5.97;;;3.90;;